首页
METAR-TAF:

METAR-TAF

机场 :

Hunter Army Airfield / Fort Stewart

薩凡納, 喬治亞, 美国

纬度: 32-01N, 经度: 081-09W, 海拔: 13米

当前天气观测

该预报发布于1小时和0分钟前的23:56 UTC
风速8节,风向
温度 21°C
湿度 64%
气压 1017 hPa
能見度: 16.1公里
天空无云

METAR: KSVN 062356Z AUTO 18008KT 10SM CLR 21/14 A3004 RMK AO2 SLP176 T02140143 10272 20214 58002 $

时间: 20:56 (00:56 UTC)

预报

该预报发布于4小时和56分钟前的20:00 UTC
预报有效从06日的 20点(UTC)到 08日的 02点(UTC)
风速6节,风向南转南东
能见度10公里或以上
少量云层高于4000英尺
少量云层高于20000英尺
成为
从 07日的 16点(UTC)到 07日的 17点(UTC)
风速10节,风向西转西南,有时为15节阵风
能见度10公里或以上
少量云层高于4000英尺

TAF: KSVN 062000Z 0620/0802 16006KT 9999 FEW040 FEW200 QNH3001INS BECMG 0716/0717 24010G15KT 9999 FEW040 QNH2996INS TX29/0718Z TN16/0711Z

超过4000个机场的气象观测和天气预报(METAR&TAF报告)。

可查询的气象台以黄色和红色小点在地图上表示。

将鼠标移到小点上方,可查看气象台名称。

然后点击查看天气观测和预报。

如需切换地图:点击带黑十字的绿色按钮放大地图;点击带横线的绿色按钮缩小地图;或者点击绿色箭头查看邻近地区的地图。


METAR-TAF: